createdAt,value
2022-08-26T00:00:58.982Z,25.42
2022-08-26T00:03:25.719Z,25.42
2022-08-26T00:05:52.409Z,25.34
2022-08-26T00:08:20.309Z,25.41
2022-08-26T00:10:47.184Z,25.43
2022-08-26T00:13:13.789Z,25.56
2022-08-26T00:15:41.221Z,25.45
2022-08-26T00:18:21.994Z,25.49
2022-08-26T00:20:48.875Z,25.43
2022-08-26T00:23:15.307Z,25.35
2022-08-26T00:25:42.763Z,25.32
2022-08-26T00:28:09.297Z,25.31
2022-08-26T00:30:37.699Z,25.27
2022-08-26T00:33:05.459Z,25.29
2022-08-26T00:35:33.624Z,25.33
2022-08-26T00:38:01.162Z,25.34
2022-08-26T00:40:35.377Z,25.36
2022-08-26T00:43:09.269Z,25.30
2022-08-26T00:45:51.434Z,25.29
2022-08-26T00:48:20.291Z,25.24
2022-08-26T00:50:52.868Z,25.18
2022-08-26T00:53:25.993Z,25.17
2022-08-26T00:56:02.445Z,25.24
2022-08-26T00:58:32.045Z,25.11
2022-08-26T01:00:58.671Z,25.23
2022-08-26T01:03:26.421Z,25.15
2022-08-26T01:05:55.809Z,25.18
2022-08-26T01:08:23.326Z,25.12
2022-08-26T01:10:52.336Z,25.14
2022-08-26T01:13:22.400Z,25.18
2022-08-26T01:15:55.574Z,25.17
2022-08-26T01:18:22.268Z,25.14
2022-08-26T01:21:21.196Z,25.19
2022-08-26T01:23:50.883Z,25.16
2022-08-26T01:26:21.300Z,25.18
2022-08-26T01:28:50.627Z,25.14
2022-08-26T01:31:21.759Z,25.19
2022-08-26T01:33:53.145Z,25.12
2022-08-26T01:36:19.717Z,25.27
2022-08-26T01:38:47.221Z,25.21
2022-08-26T01:41:19.667Z,25.18
2022-08-26T01:43:48.509Z,25.09
2022-08-26T01:46:16.087Z,25.06
2022-08-26T01:48:44.114Z,25.06
2022-08-26T01:51:11.997Z,24.97
2022-08-26T01:53:39.878Z,25.20
2022-08-26T01:56:09.082Z,25.27
2022-08-26T01:58:42.523Z,25.00
2022-08-26T02:01:10.339Z,25.03
2022-08-26T02:03:46.559Z,24.85
2022-08-26T02:06:13.858Z,24.84
2022-08-26T02:08:52.645Z,24.80
2022-08-26T02:11:19.589Z,24.92
2022-08-26T02:13:49.581Z,24.80
2022-08-26T02:16:20.178Z,24.81
2022-08-26T02:18:47.079Z,24.87
2022-08-26T02:21:13.949Z,24.82
2022-08-26T02:23:41.429Z,24.85
2022-08-26T02:26:16.513Z,24.80
2022-08-26T02:29:07.712Z,24.76
2022-08-26T02:31:34.237Z,24.85
2022-08-26T02:34:18.268Z,24.77
2022-08-26T02:36:46.446Z,24.74
2022-08-26T02:39:15.041Z,24.73
2022-08-26T02:41:46.881Z,24.72
2022-08-26T02:44:14.423Z,24.73
2022-08-26T02:46:41.180Z,24.73
2022-08-26T02:49:09.477Z,24.70
2022-08-26T02:51:35.916Z,24.71
2022-08-26T02:54:02.466Z,24.61
2022-08-26T02:56:33.240Z,24.44
2022-08-26T02:59:02.025Z,24.49
2022-08-26T03:01:32.395Z,24.53
2022-08-26T03:03:59.755Z,24.35
2022-08-26T03:06:26.228Z,24.36
2022-08-26T03:08:53.000Z,24.33
2022-08-26T03:11:19.718Z,24.39
2022-08-26T03:13:46.420Z,24.29
2022-08-26T03:16:13.608Z,24.33
2022-08-26T03:18:40.590Z,24.31
2022-08-26T03:21:11.986Z,24.31
2022-08-26T03:23:40.027Z,24.21
2022-08-26T03:26:07.285Z,24.09
2022-08-26T03:28:57.407Z,24.08
2022-08-26T03:31:25.014Z,24.04
2022-08-26T03:33:51.458Z,24.02
2022-08-26T03:36:19.129Z,23.97
2022-08-26T03:38:45.702Z,23.82
2022-08-26T03:41:12.321Z,23.86
2022-08-26T03:43:39.494Z,23.69
2022-08-26T03:46:08.666Z,23.78
2022-08-26T03:48:35.241Z,23.75
2022-08-26T03:51:03.204Z,23.78
2022-08-26T03:53:29.791Z,23.93
2022-08-26T03:55:57.431Z,23.87
2022-08-26T03:58:25.267Z,23.88
2022-08-26T04:00:55.524Z,23.91
2022-08-26T04:03:41.621Z,23.98
2022-08-26T04:06:08.201Z,23.91
2022-08-26T04:08:35.821Z,23.91
2022-08-26T04:11:02.390Z,23.90
2022-08-26T04:13:29.591Z,23.98
2022-08-26T04:15:56.061Z,23.96
2022-08-26T04:18:23.058Z,23.96
2022-08-26T04:20:50.573Z,23.92
2022-08-26T04:23:17.273Z,23.79
2022-08-26T04:25:43.710Z,23.89
2022-08-26T04:28:10.335Z,23.80
2022-08-26T04:30:37.866Z,23.74
2022-08-26T04:33:04.591Z,23.82
2022-08-26T04:35:39.876Z,23.86
2022-08-26T04:38:10.377Z,23.84
2022-08-26T04:40:36.939Z,23.93
2022-08-26T04:43:05.735Z,23.78
2022-08-26T04:45:36.565Z,23.82
2022-08-26T04:48:03.387Z,23.80
2022-08-26T04:50:30.746Z,24.09
2022-08-26T04:52:57.184Z,24.26
2022-08-26T04:55:25.190Z,24.40
2022-08-26T04:58:08.692Z,24.52
2022-08-26T05:00:36.899Z,24.51
2022-08-26T05:03:03.321Z,24.55
2022-08-26T05:05:30.910Z,24.55
2022-08-26T05:07:57.363Z,24.53
2022-08-26T05:10:23.974Z,24.55
2022-08-26T05:12:50.404Z,24.68
2022-08-26T05:15:16.856Z,24.77
2022-08-26T05:17:43.728Z,24.83
2022-08-26T05:20:10.952Z,24.96
2022-08-26T05:22:38.523Z,25.08
2022-08-26T05:25:05.294Z,25.20
2022-08-26T05:27:31.732Z,25.34
2022-08-26T05:29:59.855Z,25.51
2022-08-26T05:32:27.771Z,25.59
2022-08-26T05:34:55.749Z,25.60
2022-08-26T05:37:22.202Z,25.64
2022-08-26T05:39:51.131Z,25.82
2022-08-26T05:42:19.764Z,25.92
2022-08-26T05:44:53.788Z,25.81
2022-08-26T05:47:22.431Z,25.96
2022-08-26T05:49:51.404Z,26.03
2022-08-26T05:52:18.909Z,26.21
2022-08-26T05:54:45.355Z,26.38
2022-08-26T05:57:14.231Z,26.43
2022-08-26T05:59:40.718Z,26.50
2022-08-26T06:02:08.429Z,26.51
2022-08-26T06:04:35.764Z,26.41
2022-08-26T06:07:02.954Z,26.33
2022-08-26T06:09:31.876Z,26.30
2022-08-26T06:11:59.107Z,26.37
2022-08-26T06:14:26.053Z,26.39
2022-08-26T06:16:52.819Z,26.49
2022-08-26T06:19:20.065Z,26.53
2022-08-26T06:21:53.987Z,26.66
2022-08-26T06:24:39.538Z,26.67
2022-08-26T06:27:09.586Z,26.76
2022-08-26T06:29:37.870Z,26.74
2022-08-26T06:32:04.874Z,26.85
2022-08-26T06:34:31.481Z,26.91
2022-08-26T06:37:01.201Z,26.99
2022-08-26T06:39:30.804Z,26.85
2022-08-26T06:41:58.927Z,27.00
2022-08-26T06:44:25.775Z,27.10
2022-08-26T06:46:52.360Z,27.16
2022-08-26T06:49:25.799Z,27.42
2022-08-26T06:51:53.806Z,27.50
2022-08-26T06:54:21.216Z,27.45
2022-08-26T06:56:47.848Z,27.23
2022-08-26T06:59:15.294Z,27.57
2022-08-26T07:01:46.476Z,27.77
2022-08-26T07:04:15.605Z,27.70
2022-08-26T07:06:52.936Z,27.93
2022-08-26T07:09:21.448Z,28.24
2022-08-26T07:11:48.220Z,28.38
2022-08-26T07:14:16.717Z,28.69
2022-08-26T07:16:43.180Z,28.85
2022-08-26T07:19:11.050Z,29.07
2022-08-26T07:21:40.302Z,29.14
2022-08-26T07:24:07.696Z,28.91
2022-08-26T07:26:34.200Z,29.07
2022-08-26T07:29:01.201Z,29.20
2022-08-26T07:31:34.717Z,29.31
2022-08-26T07:34:07.557Z,29.30
2022-08-26T07:36:34.558Z,29.45
2022-08-26T07:39:01.082Z,29.49
2022-08-26T07:43:59.339Z,29.83
2022-08-26T07:46:27.250Z,30.10
2022-08-26T07:48:56.663Z,29.98
2022-08-26T07:51:23.416Z,29.98
2022-08-26T07:53:52.422Z,29.98
2022-08-26T07:56:20.609Z,29.99
2022-08-26T07:58:51.288Z,29.92
2022-08-26T08:01:23.491Z,29.89
2022-08-26T08:03:51.683Z,30.11
2022-08-26T08:06:22.496Z,29.88
2022-08-26T08:08:53.509Z,29.94
2022-08-26T08:11:22.787Z,29.91
2022-08-26T08:13:52.378Z,30.28
2022-08-26T08:16:24.316Z,30.57
2022-08-26T08:18:51.025Z,30.76
2022-08-26T08:21:21.676Z,31.04
2022-08-26T08:23:51.867Z,31.38
2022-08-26T08:26:18.636Z,31.48
2022-08-26T08:28:46.247Z,31.78
2022-08-26T08:31:58.015Z,31.94
2022-08-26T08:34:27.139Z,31.76
2022-08-26T08:36:54.384Z,31.72
2022-08-26T08:39:21.924Z,31.80
2022-08-26T08:42:16.076Z,31.99
2022-08-26T08:44:48.251Z,31.86
2022-08-26T08:47:31.473Z,31.95
2022-08-26T08:50:06.483Z,32.25
2022-08-26T08:52:35.585Z,32.54
2022-08-26T08:55:05.220Z,32.68
2022-08-26T08:57:46.154Z,32.55
2022-08-26T09:00:17.970Z,32.72
2022-08-26T09:02:47.881Z,32.70
2022-08-26T09:05:14.944Z,32.78
2022-08-26T09:07:49.148Z,32.99
2022-08-26T09:10:29.313Z,32.55
2022-08-26T09:12:56.010Z,32.61
2022-08-26T09:15:36.683Z,32.61
2022-08-26T09:18:29.845Z,32.75
2022-08-26T09:21:00.456Z,32.98
2022-08-26T09:23:26.991Z,33.15
2022-08-26T09:26:02.011Z,33.01
2022-08-26T09:28:30.611Z,33.28
2022-08-26T09:31:11.500Z,32.96
2022-08-26T09:33:38.438Z,33.14
2022-08-26T09:36:17.032Z,33.06
2022-08-26T09:38:44.512Z,33.40
2022-08-26T09:41:26.369Z,33.95
2022-08-26T09:44:17.865Z,33.84
2022-08-26T09:46:55.178Z,33.72
2022-08-26T09:49:26.219Z,33.68
2022-08-26T09:52:23.754Z,34.05
2022-08-26T09:55:27.022Z,34.42
2022-08-26T09:57:55.658Z,34.36
2022-08-26T10:00:41.933Z,34.60
2022-08-26T10:03:24.332Z,34.71
2022-08-26T10:06:03.036Z,34.32
2022-08-26T10:08:39.581Z,34.33
2022-08-26T10:11:16.131Z,34.33
2022-08-26T10:13:48.400Z,34.20
2022-08-26T10:16:19.543Z,33.98
2022-08-26T10:19:07.644Z,34.08
2022-08-26T10:21:47.123Z,33.80
2022-08-26T10:24:23.454Z,33.36
2022-08-26T10:26:55.819Z,33.82
2022-08-26T10:29:40.055Z,33.68
2022-08-26T10:32:18.909Z,33.78
2022-08-26T10:34:45.484Z,34.10
2022-08-26T10:37:16.617Z,33.50
2022-08-26T10:40:03.042Z,33.25
2022-08-26T10:42:35.302Z,33.20
2022-08-26T10:45:11.722Z,33.18
2022-08-26T10:47:48.891Z,33.30
2022-08-26T10:50:15.794Z,33.85
2022-08-26T10:53:03.382Z,33.89
2022-08-26T10:55:35.539Z,33.24
2022-08-26T10:58:39.538Z,33.33
2022-08-26T11:01:40.874Z,34.17
2022-08-26T11:04:34.934Z,34.85
2022-08-26T11:07:33.615Z,34.48
2022-08-26T11:10:02.652Z,33.84
2022-08-26T11:12:38.718Z,34.17
2022-08-26T11:15:09.606Z,33.96
2022-08-26T11:17:45.152Z,34.29
2022-08-26T11:20:24.272Z,34.02
2022-08-26T11:22:52.776Z,33.81
2022-08-26T11:25:29.675Z,33.57
2022-08-26T11:27:59.602Z,33.49
2022-08-26T11:30:36.648Z,33.71
2022-08-26T11:33:03.266Z,33.79
2022-08-26T11:35:34.212Z,33.73
2022-08-26T11:38:05.544Z,33.63
2022-08-26T11:40:40.489Z,34.03
2022-08-26T11:43:14.929Z,34.44
2022-08-26T11:45:44.238Z,34.62
2022-08-26T11:48:21.312Z,34.27
2022-08-26T11:50:54.599Z,34.40
2022-08-26T11:53:22.950Z,34.57
2022-08-26T11:55:50.737Z,34.12
2022-08-26T11:58:17.944Z,34.01
2022-08-26T12:00:49.571Z,34.34
2022-08-26T12:03:26.260Z,34.77
2022-08-26T12:05:53.738Z,34.83
2022-08-26T12:08:24.114Z,34.31
2022-08-26T12:11:10.292Z,33.38
2022-08-26T12:13:38.995Z,33.18
2022-08-26T12:16:06.389Z,32.87
2022-08-26T12:18:37.551Z,32.89
2022-08-26T12:21:19.071Z,33.00
2022-08-26T12:23:46.881Z,33.30
2022-08-26T12:26:35.283Z,33.11
2022-08-26T12:29:20.112Z,32.78
2022-08-26T12:31:47.892Z,32.91
2022-08-26T12:34:18.796Z,32.78
2022-08-26T12:39:26.280Z,32.81
2022-08-26T12:41:55.744Z,32.30
2022-08-26T12:44:33.384Z,32.02
2022-08-26T12:47:09.399Z,32.31
2022-08-26T12:49:37.713Z,32.59
2022-08-26T12:52:06.003Z,32.21
2022-08-26T12:54:56.083Z,32.17
2022-08-26T12:57:27.019Z,32.56
2022-08-26T12:59:53.437Z,32.55
2022-08-26T13:02:36.546Z,32.35
2022-08-26T13:05:03.190Z,32.17
2022-08-26T13:07:29.666Z,32.05
2022-08-26T13:09:58.277Z,31.66
2022-08-26T13:12:34.582Z,31.85
2022-08-26T13:15:01.917Z,32.22
2022-08-26T13:17:28.913Z,32.14
2022-08-26T13:19:58.033Z,31.66
2022-08-26T13:22:27.890Z,30.86
2022-08-26T13:24:56.821Z,30.70
2022-08-26T13:27:26.224Z,30.62
2022-08-26T13:29:53.855Z,30.59
2022-08-26T13:32:22.447Z,30.59
2022-08-26T13:34:53.961Z,30.84
2022-08-26T13:37:22.282Z,30.79
2022-08-26T13:39:51.098Z,30.61
2022-08-26T13:42:17.550Z,30.57
2022-08-26T13:44:45.094Z,30.45
2022-08-26T13:47:11.817Z,30.61
2022-08-26T13:49:38.593Z,30.64
2022-08-26T13:52:05.028Z,30.39
2022-08-26T13:54:31.483Z,30.21
2022-08-26T13:56:58.047Z,29.42
2022-08-26T13:59:24.548Z,28.94
2022-08-26T14:01:51.006Z,28.63
2022-08-26T14:04:17.999Z,28.13
2022-08-26T14:06:53.963Z,27.62
2022-08-26T14:09:20.418Z,26.80
2022-08-26T14:11:53.894Z,26.40
2022-08-26T14:14:21.488Z,26.36
2022-08-26T14:16:59.032Z,25.92
2022-08-26T14:19:27.811Z,25.64
2022-08-26T14:21:54.266Z,25.32
2022-08-26T14:24:20.776Z,25.13
2022-08-26T14:26:48.445Z,24.72
2022-08-26T14:29:16.759Z,24.66
2022-08-26T14:31:43.675Z,24.97
2022-08-26T14:34:12.555Z,24.98
2022-08-26T14:36:39.041Z,25.34
2022-08-26T14:39:08.293Z,25.45
2022-08-26T14:41:39.394Z,25.71
2022-08-26T14:44:09.104Z,25.75
2022-08-26T14:46:41.842Z,25.94
2022-08-26T14:49:10.751Z,26.01
2022-08-26T14:51:37.540Z,26.08
2022-08-26T14:54:13.198Z,26.00
2022-08-26T14:56:44.282Z,26.17
2022-08-26T14:59:11.487Z,26.16
2022-08-26T15:01:37.943Z,26.30
2022-08-26T15:04:04.627Z,26.21
2022-08-26T15:06:31.905Z,25.95
2022-08-26T15:08:59.021Z,26.17
2022-08-26T15:11:25.845Z,26.35
2022-08-26T15:13:53.006Z,26.31
2022-08-26T15:16:19.789Z,26.43
2022-08-26T15:18:46.331Z,26.35
2022-08-26T15:21:12.808Z,26.42
2022-08-26T15:23:39.609Z,26.48
2022-08-26T15:26:10.409Z,26.32
2022-08-26T15:28:38.372Z,26.28
2022-08-26T15:31:06.557Z,26.32
2022-08-26T15:33:34.252Z,26.22
2022-08-26T15:36:02.335Z,26.16
2022-08-26T15:38:33.536Z,26.34
2022-08-26T15:41:03.209Z,26.31
2022-08-26T15:43:30.352Z,26.05
2022-08-26T15:45:57.527Z,26.21
2022-08-26T15:48:25.057Z,26.14
2022-08-26T15:50:57.267Z,26.21
2022-08-26T15:53:24.374Z,26.24
2022-08-26T15:55:53.835Z,26.11
2022-08-26T15:58:20.776Z,26.18
2022-08-26T16:00:47.323Z,26.10
2022-08-26T16:03:13.795Z,25.94
2022-08-26T16:05:43.439Z,25.71
2022-08-26T16:08:10.518Z,25.92
2022-08-26T16:10:41.563Z,25.96
2022-08-26T16:13:10.338Z,26.10
2022-08-26T16:15:39.507Z,26.11
2022-08-26T16:18:07.308Z,25.75
2022-08-26T16:20:36.084Z,26.21
2022-08-26T16:23:02.923Z,26.06
2022-08-26T16:25:30.379Z,25.62
2022-08-26T16:27:57.408Z,26.04
2022-08-26T16:30:25.628Z,26.02
2022-08-26T16:32:52.154Z,26.13
2022-08-26T16:35:18.718Z,26.10
2022-08-26T16:37:45.862Z,26.12
2022-08-26T16:40:12.404Z,26.37
2022-08-26T16:42:38.938Z,25.82
2022-08-26T16:45:06.273Z,25.91
2022-08-26T16:47:33.723Z,26.05
2022-08-26T16:50:00.358Z,26.32
2022-08-26T16:52:26.798Z,26.35
2022-08-26T16:54:58.131Z,26.47
2022-08-26T16:57:24.604Z,26.63
2022-08-26T16:59:51.047Z,26.49
2022-08-26T17:02:17.527Z,26.39
2022-08-26T17:04:47.153Z,26.06
2022-08-26T17:07:16.749Z,26.06
2022-08-26T17:09:43.240Z,26.06
2022-08-26T17:12:10.746Z,26.50
2022-08-26T17:14:37.233Z,26.11
2022-08-26T17:17:04.014Z,25.82
2022-08-26T17:19:30.446Z,26.08
2022-08-26T17:22:07.891Z,25.91
2022-08-26T17:24:34.576Z,25.96
2022-08-26T17:27:01.034Z,25.85
2022-08-26T17:29:27.508Z,25.80
2022-08-26T17:31:53.923Z,25.71
2022-08-26T17:34:21.023Z,25.72
2022-08-26T17:36:47.573Z,25.28
2022-08-26T17:39:14.012Z,25.38
2022-08-26T17:41:41.038Z,25.46
2022-08-26T17:44:07.727Z,25.49
2022-08-26T17:46:38.524Z,25.34
2022-08-26T17:49:05.653Z,25.37
2022-08-26T17:51:32.265Z,25.23
2022-08-26T17:53:58.787Z,25.04
2022-08-26T17:56:27.582Z,25.13
2022-08-26T17:58:56.885Z,25.24
2022-08-26T18:01:26.098Z,25.46
2022-08-26T18:03:56.754Z,25.40
2022-08-26T18:06:26.218Z,25.46
2022-08-26T18:08:53.288Z,25.45
2022-08-26T18:11:21.609Z,25.36
2022-08-26T18:13:48.165Z,25.40
2022-08-26T18:16:16.045Z,25.03
2022-08-26T18:18:43.076Z,24.92
2022-08-26T18:21:17.089Z,24.92
2022-08-26T18:23:45.114Z,24.93
2022-08-26T18:26:25.220Z,24.81
2022-08-26T18:28:52.754Z,24.71
2022-08-26T18:31:19.799Z,24.97
2022-08-26T18:33:46.928Z,24.92
2022-08-26T18:36:23.261Z,24.72
2022-08-26T18:38:50.719Z,24.58
2022-08-26T18:41:20.695Z,24.80
2022-08-26T18:43:48.689Z,24.64
2022-08-26T18:46:15.220Z,24.61
2022-08-26T18:48:41.818Z,24.54
2022-08-26T18:51:08.848Z,24.53
2022-08-26T18:53:39.156Z,24.35
2022-08-26T18:56:05.709Z,24.29
2022-08-26T18:58:32.164Z,24.12
2022-08-26T19:00:58.941Z,24.25
2022-08-26T19:03:26.592Z,24.53
2022-08-26T19:05:53.051Z,24.40
2022-08-26T19:08:19.454Z,24.30
2022-08-26T19:10:46.005Z,24.50
2022-08-26T19:13:12.776Z,24.30
2022-08-26T19:15:44.495Z,24.29
2022-08-26T19:18:12.276Z,24.48
2022-08-26T19:20:43.549Z,24.49
2022-08-26T19:23:31.064Z,24.16
2022-08-26T19:25:58.742Z,24.14
2022-08-26T19:28:25.180Z,24.27
2022-08-26T19:30:53.313Z,24.31
2022-08-26T19:33:20.025Z,24.37
2022-08-26T19:35:46.643Z,24.31
2022-08-26T19:38:13.792Z,24.29
2022-08-26T19:40:40.521Z,24.26
2022-08-26T19:43:07.179Z,24.46
2022-08-26T19:45:34.041Z,24.20
2022-08-26T19:48:00.512Z,24.33
2022-08-26T19:50:29.144Z,24.54
2022-08-26T19:52:55.765Z,24.30
2022-08-26T19:55:23.344Z,24.28
2022-08-26T19:57:52.240Z,24.21
2022-08-26T20:00:23.513Z,24.29
2022-08-26T20:02:50.807Z,24.16
2022-08-26T20:05:20.377Z,24.02
2022-08-26T20:07:48.029Z,24.05
2022-08-26T20:10:16.535Z,24.05
2022-08-26T20:12:43.580Z,23.99
2022-08-26T20:15:11.761Z,23.92
2022-08-26T20:17:38.718Z,23.59
2022-08-26T20:20:32.940Z,23.46
2022-08-26T20:23:00.840Z,23.33
2022-08-26T20:25:27.315Z,23.63
2022-08-26T20:27:53.734Z,23.67
2022-08-26T20:30:20.373Z,23.71
2022-08-26T20:32:46.858Z,23.68
2022-08-26T20:35:13.848Z,23.79
2022-08-26T20:37:41.229Z,23.64
2022-08-26T20:40:10.421Z,23.32
2022-08-26T20:42:38.030Z,23.62
2022-08-26T20:45:06.445Z,23.44
2022-08-26T20:47:33.519Z,23.24
2022-08-26T20:50:00.085Z,23.42
2022-08-26T20:52:26.510Z,23.25
2022-08-26T20:54:52.968Z,23.27
2022-08-26T20:57:19.577Z,23.38
2022-08-26T20:59:46.008Z,23.35
2022-08-26T21:02:12.438Z,23.13
2022-08-26T21:04:38.938Z,23.55
2022-08-26T21:07:05.514Z,23.35
2022-08-26T21:09:32.517Z,23.25
2022-08-26T21:11:59.314Z,23.43
2022-08-26T21:14:26.176Z,23.32
2022-08-26T21:16:53.174Z,23.40
2022-08-26T21:19:19.708Z,23.36
2022-08-26T21:21:47.923Z,23.29
2022-08-26T21:24:14.506Z,23.30
2022-08-26T21:26:41.129Z,23.50
2022-08-26T21:29:09.722Z,23.43
2022-08-26T21:31:39.983Z,23.37
2022-08-26T21:34:08.917Z,23.29
2022-08-26T21:36:35.370Z,23.51
2022-08-26T21:39:01.917Z,23.42
2022-08-26T21:41:29.000Z,23.14
2022-08-26T21:43:59.086Z,23.11
2022-08-26T21:46:27.621Z,23.18
2022-08-26T21:48:57.083Z,23.19
2022-08-26T21:51:25.555Z,23.31
2022-08-26T21:53:52.890Z,23.45
2022-08-26T21:56:20.703Z,23.44
2022-08-26T21:58:47.457Z,23.35
2022-08-26T22:01:17.732Z,23.28
2022-08-26T22:03:47.037Z,23.58
2022-08-26T22:06:17.489Z,23.75
2022-08-26T22:08:43.966Z,23.72
2022-08-26T22:11:10.648Z,23.68
2022-08-26T22:13:38.433Z,23.68
2022-08-26T22:16:06.004Z,23.69
2022-08-26T22:18:32.932Z,23.67
2022-08-26T22:21:03.569Z,23.61
2022-08-26T22:23:30.274Z,23.51
2022-08-26T22:25:57.490Z,23.40
2022-08-26T22:28:24.322Z,23.49
2022-08-26T22:30:50.805Z,23.44
2022-08-26T22:33:17.887Z,23.20
2022-08-26T22:35:47.583Z,23.23
2022-08-26T22:38:14.451Z,23.19
2022-08-26T22:40:46.170Z,23.25
2022-08-26T22:43:12.880Z,23.22
2022-08-26T22:45:47.307Z,23.35
2022-08-26T22:48:16.251Z,23.33
2022-08-26T22:50:43.607Z,23.35
2022-08-26T22:53:10.093Z,23.22
2022-08-26T22:55:36.839Z,23.21
2022-08-26T22:58:04.211Z,23.16
2022-08-26T23:00:32.046Z,23.19
2022-08-26T23:02:59.305Z,23.37
2022-08-26T23:05:25.906Z,23.22
2022-08-26T23:07:52.466Z,23.30
2022-08-26T23:10:19.097Z,23.05
2022-08-26T23:12:45.556Z,23.27
2022-08-26T23:15:12.097Z,23.29
2022-08-26T23:17:39.010Z,23.22
2022-08-26T23:20:10.010Z,23.26
2022-08-26T23:22:37.072Z,23.11
2022-08-26T23:25:07.727Z,23.22
2022-08-26T23:27:40.250Z,23.22
2022-08-26T23:30:09.757Z,23.04
2022-08-26T23:32:36.264Z,23.33
2022-08-26T23:35:02.729Z,23.23
2022-08-26T23:37:33.571Z,23.20
2022-08-26T23:40:36.289Z,23.24
2022-08-26T23:43:05.128Z,23.02
2022-08-26T23:45:32.315Z,23.33
2022-08-26T23:47:59.190Z,23.25
2022-08-26T23:50:48.023Z,22.98
2022-08-26T23:53:20.759Z,23.11
2022-08-26T23:55:49.131Z,23.09
2022-08-26T23:58:17.381Z,23.15
